Olen, Belgium
Current Conditions -  °F | °C
As of 5:03 AM on Wednesday 26 Nov 2014 (Local Time) from EBDT Reporting Station
Broken Clouds Broken Clouds  
Wind Chill: 38°   Ceiling: 13000
Heat Index: 41°   Visibility: 6mi
Dew Point: 37°   Wind: 5mph
Humidity: 87%   Direction: 80°E
Pressure: 29.97"   Gusts: NA
Location:  51.14°N, 4.86°E
Report Text: EBDT 260403Z 08004KT 9000 FEW090 BKN130 BKN150 05/03 Q1015 BLU BLU TEMPO WHT
Loading
Personal Weather Stations






























Interactive Weather Map New forecast layout! Learn more

10-Day Weather Forecast

Advertisements
Track Severe Weather on mobile